Time;durP1;ratioP1;P1;durP2;ratioP2;P2;SDS_P1;SDS_P2;PMS_P1;PMS_P2;Temp;Humidity;BMP_temperature;BMP_pressure;BME280_temperature;BME280_humidity;BME280_pressure;Samples;Min_cycle;Max_cycle;Signal;HPM_P1;HPM_P2
2021/06/22 00:01:07;;;;;;;8.15;2.42;;;;;;;17.48;97.34;96208.50;5034693;28;20494;-65
2021/06/22 00:03:33;;;;;;;6.47;2.58;;;;;;;17.06;97.82;96213.63;5032150;28;20051;-67
2021/06/22 00:05:58;;;;;;;10.82;3.97;;;;;;;16.59;100.00;96205.25;5031554;28;20045;-66
2021/06/22 00:08:25;;;;;;;8.85;3.38;;;;;;;16.39;100.00;96205.16;5027929;28;20366;-66
2021/06/22 00:10:50;;;;;;;11.20;2.80;;;;;;;16.24;100.00;96202.59;5003203;28;20041;-67
2021/06/22 00:13:16;;;;;;;11.27;3.75;;;;;;;16.23;100.00;96200.25;5013859;28;20136;-67
2021/06/22 00:15:41;;;;;;;8.18;3.78;;;;;;;16.25;100.00;96203.38;5020018;28;20065;-67
2021/06/22 00:18:08;;;;;;;9.95;3.20;;;;;;;16.23;100.00;96197.50;5000242;28;20511;-64
2021/06/22 00:20:33;;;;;;;9.27;2.75;;;;;;;16.19;100.00;96199.53;5029703;28;20057;-65
2021/06/22 00:22:58;;;;;;;5.57;3.03;;;;;;;16.17;100.00;96197.19;5042186;28;20091;-68
2021/06/22 00:25:25;;;;;;;7.97;3.05;;;;;;;16.19;100.00;96196.78;5016952;28;20096;-65
2021/06/22 00:27:51;;;;;;;7.78;3.22;;;;;;;16.15;100.00;96190.50;5031125;28;20139;-67
2021/06/22 00:30:18;;;;;;;9.05;3.22;;;;;;;16.12;100.00;96185.81;5013468;28;20077;-67
2021/06/22 00:32:44;;;;;;;10.23;3.28;;;;;;;16.03;100.00;96175.28;4980406;28;20056;-66
2021/06/22 00:35:10;;;;;;;7.53;3.75;;;;;;;16.00;100.00;96178.84;4993655;28;20049;-65
2021/06/22 00:37:36;;;;;;;10.27;3.40;;;;;;;15.96;100.00;96167.84;4983282;28;20038;-67
2021/06/22 00:40:01;;;;;;;7.68;3.60;;;;;;;15.97;100.00;96174.16;4999424;28;20131;-67
2021/06/22 00:42:27;;;;;;;6.53;3.72;;;;;;;15.97;100.00;96163.91;5006716;28;20917;-67
2021/06/22 00:44:59;;;;;;;11.80;3.30;;;;;;;15.97;100.00;96166.66;5025491;28;20066;-66
2021/06/22 00:47:26;;;;;;;6.40;3.28;;;;;;;16.07;100.00;96153.91;5014396;28;20987;-67
2021/06/22 00:49:53;;;;;;;10.05;3.42;;;;;;;16.04;100.00;96155.53;5000388;28;20056;-65
2021/06/22 00:52:24;;;;;;;6.70;2.75;;;;;;;16.09;100.00;96151.50;5007092;28;20049;-66
2021/06/22 00:54:50;;;;;;;7.10;2.90;;;;;;;16.26;100.00;96146.94;5015162;28;20042;-65
2021/06/22 00:57:16;;;;;;;6.28;2.55;;;;;;;16.23;100.00;96147.75;4994213;28;20052;-65
2021/06/22 00:59:42;;;;;;;6.88;3.20;;;;;;;16.37;100.00;96144.00;5003910;28;20381;-65
2021/06/22 01:02:08;;;;;;;6.25;2.90;;;;;;;16.35;100.00;96152.72;4977524;28;20057;-66
2021/06/22 01:04:35;;;;;;;6.93;2.67;;;;;;;16.42;100.00;96149.84;4984287;28;20053;-66
2021/06/22 01:07:01;;;;;;;7.93;2.85;;;;;;;16.32;100.00;96153.53;5002391;28;20475;-65
2021/06/22 01:09:28;;;;;;;6.75;2.95;;;;;;;16.28;100.00;96152.81;5001829;28;20589;-65
2021/06/22 01:11:55;;;;;;;6.90;2.58;;;;;;;16.31;100.00;96140.91;4995665;28;20049;-65
2021/06/22 01:14:20;;;;;;;8.30;2.55;;;;;;;16.39;100.00;96139.63;5014918;28;20091;-65
2021/06/22 01:16:46;;;;;;;6.95;2.67;;;;;;;16.35;100.00;96141.66;5020180;28;20041;-65
2021/06/22 01:19:12;;;;;;;5.20;2.63;;;;;;;16.42;100.00;96129.69;4996411;28;20042;-64
2021/06/22 01:21:38;;;;;;;11.68;2.63;;;;;;;16.63;100.00;96134.88;5003321;28;20037;-65
2021/06/22 01:24:10;;;;;;;10.25;2.35;;;;;;;16.82;98.45;96140.91;5018159;28;20048;-66
2021/06/22 01:26:39;;;;;;;7.30;2.20;;;;;;;16.92;97.10;96134.41;5031471;28;20049;-64
2021/06/22 01:29:08;;;;;;;8.52;2.42;;;;;;;16.70;96.71;96142.28;5029803;28;20037;-65
2021/06/22 01:31:35;;;;;;;7.97;2.75;;;;;;;16.69;97.59;96134.41;4994658;28;20045;-64
2021/06/22 01:34:00;;;;;;;8.25;2.45;;;;;;;16.69;97.35;96137.16;5003862;28;20480;-64
2021/06/22 01:36:30;;;;;;;4.88;2.42;;;;;;;16.80;97.59;96135.03;5018657;28;20141;-64
2021/06/22 01:38:56;;;;;;;;;;;;;;;16.77;95.57;96135.84;5020519;28;20108;-65
2021/06/22 01:41:22;;;;;;;5.10;2.00;;;;;;;16.58;96.30;96132.63;5034033;28;20021;-64
2021/06/22 01:43:47;;;;;;;6.82;2.63;;;;;;;16.51;97.17;96134.69;5014290;28;20049;-64
2021/06/22 01:46:13;;;;;;;6.32;2.20;;;;;;;16.57;97.84;96133.03;5019405;28;20494;-65
2021/06/22 01:48:39;;;;;;;6.45;2.33;;;;;;;16.60;97.45;96127.44;5031768;28;20042;-64
2021/06/22 01:51:05;;;;;;;8.52;2.40;;;;;;;16.57;97.30;96127.50;5006412;28;20038;-64
2021/06/22 01:53:30;;;;;;;10.82;2.20;;;;;;;16.16;98.54;96123.78;5012763;28;20053;-63
2021/06/22 01:55:55;;;;;;;7.38;2.58;;;;;;;16.24;98.79;96122.47;5012909;28;20144;-63
2021/06/22 01:58:21;;;;;;;8.65;2.20;;;;;;;16.36;98.90;96129.38;5026021;28;20712;-63
2021/06/22 02:00:50;;;;;;;4.85;2.90;;;;;;;16.41;98.86;96128.16;5020186;28;20494;-64
2021/06/22 02:03:17;;;;;;;6.80;2.33;;;;;;;16.39;97.89;96131.31;5029168;28;20037;-64
2021/06/22 02:05:44;;;;;;;6.03;2.17;;;;;;;16.39;98.16;96116.72;5020122;28;20401;-64
2021/06/22 02:08:10;;;;;;;10.80;2.30;;;;;;;16.44;97.87;96110.72;5021390;28;20504;-64
2021/06/22 02:10:36;;;;;;;5.20;2.20;;;;;;;16.65;97.10;96104.03;5033450;28;20454;-64
2021/06/22 02:13:02;;;;;;;8.98;2.40;;;;;;;16.63;96.42;96111.97;5034609;28;20140;-65
2021/06/22 02:15:28;;;;;;;5.45;2.72;;;;;;;16.60;96.03;96124.69;5017147;28;20131;-64
2021/06/22 02:17:53;;;;;;;7.22;2.10;;;;;;;16.69;95.86;96121.38;5031697;28;20436;-66
2021/06/22 02:20:19;;;;;;;8.10;2.20;;;;;;;16.73;94.98;96124.09;5025527;28;20438;-66
2021/06/22 02:22:44;;;;;;;6.28;2.45;;;;;;;16.67;94.98;96128.50;5039285;28;20044;-66
2021/06/22 02:25:11;;;;;;;9.15;2.80;;;;;;;16.49;95.45;96124.06;5022480;28;20090;-64
2021/06/22 02:27:38;;;;;;;8.15;2.05;;;;;;;16.59;96.12;96122.31;5034375;28;20067;-64
2021/06/22 02:30:07;;;;;;;7.80;2.50;;;;;;;16.69;95.13;96121.38;5039083;28;20041;-64
2021/06/22 02:32:33;;;;;;;7.97;2.10;;;;;;;16.65;94.43;96123.41;5030914;28;20045;-63
2021/06/22 02:34:59;;;;;;;8.13;2.05;;;;;;;16.56;94.93;96129.47;5026106;28;20064;-65
2021/06/22 02:37:24;;;;;;;9.32;2.30;;;;;;;16.57;94.87;96124.72;5035950;28;20041;-65
2021/06/22 02:39:49;;;;;;;7.28;2.38;;;;;;;16.56;95.05;96126.69;5031529;28;20057;-65
2021/06/22 02:42:15;;;;;;;10.80;2.20;;;;;;;16.61;94.98;96129.00;5006465;28;20125;-64
2021/06/22 02:44:41;;;;;;;4.72;2.00;;;;;;;16.60;94.36;96115.59;5030256;28;20140;-65
2021/06/22 02:47:07;;;;;;;5.13;2.03;;;;;;;16.57;94.99;96113.69;5025456;28;20102;-66
2021/06/22 02:49:32;;;;;;;7.30;2.70;;;;;;;16.63;95.31;96115.53;5036978;28;20037;-65
2021/06/22 02:51:58;;;;;;;7.75;2.35;;;;;;;16.79;94.20;96117.63;5042463;28;20072;-65
2021/06/22 02:54:25;;;;;;;6.68;2.50;;;;;;;16.79;94.06;96117.63;5026637;28;20064;-65
2021/06/22 02:56:50;;;;;;;5.65;2.35;;;;;;;16.75;93.77;96110.63;5016458;28;20048;-65
2021/06/22 02:59:16;;;;;;;6.45;2.60;;;;;;;16.77;94.17;96106.22;5023684;28;20498;-65
2021/06/22 03:01:42;;;;;;;10.18;2.10;;;;;;;16.74;93.48;96104.28;5025713;28;20432;-64
2021/06/22 03:04:07;;;;;;;6.20;2.10;;;;;;;16.70;93.20;96100.81;5025075;28;20049;-66
2021/06/22 03:06:33;;;;;;;6.63;1.75;;;;;;;16.59;93.74;96102.97;5022207;28;20148;-64
2021/06/22 03:08:58;;;;;;;6.65;2.05;;;;;;;16.51;94.43;96107.84;5023077;28;20590;-64
2021/06/22 03:11:24;;;;;;;10.10;2.58;;;;;;;16.50;94.66;96114.56;5022499;28;20499;-64
2021/06/22 03:13:49;;;;;;;5.68;2.90;;;;;;;16.36;95.37;96110.03;5037735;22;20053;-64
2021/06/22 03:16:15;;;;;;;11.02;2.95;;;;;;;16.16;96.06;96106.41;5006029;28;20107;-63
2021/06/22 03:18:40;;;;;;;8.13;2.35;;;;;;;16.11;96.71;96109.66;5022089;28;20045;-64
2021/06/22 03:21:05;;;;;;;9.95;2.40;;;;;;;16.24;97.07;96127.19;4998604;28;20494;-62
2021/06/22 03:23:31;;;;;;;5.40;1.92;;;;;;;16.40;96.23;96129.34;5022944;28;20084;-65
2021/06/22 03:25:56;;;;;;;3.65;1.77;;;;;;;16.25;96.54;96134.31;5022280;28;20048;-64
2021/06/22 03:28:22;;;;;;;6.72;2.28;;;;;;;16.22;97.35;96126.84;5023205;28;20436;-65
2021/06/22 03:30:48;;;;;;;7.38;2.63;;;;;;;16.20;96.82;96140.28;5023553;28;20060;-65
2021/06/22 03:33:13;;;;;;;5.60;2.35;;;;;;;16.31;97.54;96140.13;5016541;28;20179;-64
2021/06/22 03:35:39;;;;;;;7.88;2.65;;;;;;;16.30;97.47;96142.13;5021398;28;20060;-64
2021/06/22 03:38:05;;;;;;;8.68;2.67;;;;;;;16.23;97.13;96139.47;5016613;28;20175;-59
2021/06/22 03:40:30;;;;;;;6.20;2.15;;;;;;;16.17;98.06;96130.06;5021748;28;20050;-64
2021/06/22 03:42:56;;;;;;;3.70;2.22;;;;;;;16.51;96.46;96131.94;5026771;28;20079;-64
2021/06/22 03:45:24;;;;;;;9.98;2.25;;;;;;;16.66;95.64;96132.50;5014450;28;20069;-63
2021/06/22 03:47:50;;;;;;;6.07;2.10;;;;;;;16.63;95.40;96129.34;5028896;28;20037;-64
2021/06/22 03:50:15;;;;;;;8.32;1.95;;;;;;;16.68;94.97;96133.63;5031696;28;20052;-64
2021/06/22 03:52:41;;;;;;;8.70;3.03;;;;;;;16.82;94.20;96130.63;5021765;28;20410;-65
2021/06/22 03:55:26;;;;;;;8.20;1.85;;;;;;;16.92;93.18;96126.13;5015391;28;20041;-63
2021/06/22 03:58:00;;;;;;;8.20;2.10;;;;;;;16.93;92.44;96133.22;5023211;28;20131;-64
2021/06/22 04:00:26;;;;;;;10.30;2.15;;;;;;;16.72;92.98;96136.34;5019640;28;20065;-64
2021/06/22 04:02:52;;;;;;;7.20;2.00;;;;;;;16.69;93.94;96129.66;5027791;28;20049;-64
2021/06/22 04:05:17;;;;;;;7.57;2.10;;;;;;;16.70;93.78;96124.91;5020265;28;20071;-64
2021/06/22 04:07:43;;;;;;;8.70;2.22;;;;;;;16.59;93.85;96136.16;5021608;28;20045;-62
2021/06/22 04:10:10;;;;;;;7.65;1.98;;;;;;;16.54;94.98;96136.63;5017110;28;20043;-62
2021/06/22 04:12:35;;;;;;;7.45;2.75;;;;;;;16.66;94.57;96130.50;5023733;28;20056;-62
2021/06/22 04:15:02;;;;;;;6.78;1.95;;;;;;;16.91;93.75;96141.16;5023164;28;20033;-64
2021/06/22 04:17:28;;;;;;;3.22;1.88;;;;;;;17.22;91.73;96138.25;5022994;28;20045;-64
2021/06/22 04:19:53;;;;;;;5.72;2.10;;;;;;;17.30;90.76;96139.66;5022201;28;20052;-64
2021/06/22 04:22:18;;;;;;;5.47;1.90;;;;;;;17.25;90.82;96140.16;5017347;28;20051;-62
2021/06/22 04:24:44;;;;;;;5.13;2.78;;;;;;;16.95;92.38;96132.81;5020091;28;20041;-65
2021/06/22 04:27:10;;;;;;;7.55;2.47;;;;;;;16.95;93.14;96130.03;5015206;28;20033;-64
2021/06/22 04:29:35;;;;;;;7.05;2.42;;;;;;;16.66;94.20;96127.75;5021606;28;20144;-63
2021/06/22 04:32:01;;;;;;;7.82;2.67;;;;;;;16.63;94.93;96129.34;5025784;28;20458;-65
2021/06/22 04:34:26;;;;;;;5.22;2.50;;;;;;;16.78;93.99;96135.44;5025151;28;20056;-66
2021/06/22 04:36:52;;;;;;;12.15;3.45;;;;;;;16.83;93.77;96134.19;5027792;28;20045;-62
2021/06/22 04:39:18;;;;;;;13.23;3.95;;;;;;;16.58;94.43;96129.03;5017272;28;20037;-63
2021/06/22 04:41:44;;;;;;;8.25;2.67;;;;;;;16.44;96.58;96136.38;5019531;28;20409;-63
2021/06/22 04:44:09;;;;;;;7.20;3.05;;;;;;;17.00;94.13;96140.63;5015530;28;20049;-62
2021/06/22 04:46:35;;;;;;;6.80;2.28;;;;;;;17.75;89.29;96133.63;5020030;28;20049;-62
2021/06/22 04:49:00;;;;;;;6.03;2.00;;;;;;;18.69;84.61;96135.09;5039430;28;20046;-68
2021/06/22 04:51:26;;;;;;;5.38;1.90;;;;;;;19.64;80.61;96139.75;5018940;28;20489;-62
2021/06/22 04:53:51;;;;;;;4.60;1.50;;;;;;;21.29;74.61;96129.03;5021798;28;20045;-63
2021/06/22 04:56:21;;;;;;;6.35;1.70;;;;;;;21.72;70.25;96132.34;5014932;28;20038;-62
2021/06/22 04:58:47;;;;;;;17.92;2.05;;;;;;;23.28;63.51;96126.56;5034163;28;20045;-63
2021/06/22 05:01:12;;;;;;;4.43;1.40;;;;;;;23.92;60.25;96127.00;5022336;28;20067;-64
2021/06/22 05:03:38;;;;;;;3.30;1.38;;;;;;;22.95;62.43;96128.38;5026285;28;20126;-62
2021/06/22 05:06:04;;;;;;;7.38;1.70;;;;;;;21.42;68.62;96131.00;5023801;28;20045;-62
2021/06/22 05:08:29;;;;;;;6.15;2.03;;;;;;;21.26;69.83;96135.50;5027219;28;20473;-62
2021/06/22 05:10:55;;;;;;;5.22;1.98;;;;;;;20.86;70.02;96126.97;5027407;28;20046;-62
2021/06/22 05:13:21;;;;;;;7.28;2.78;;;;;;;19.98;74.42;96135.63;5020924;28;20418;-64
2021/06/22 05:15:46;;;;;;;3.78;2.10;;;;;;;19.20;79.41;96134.63;5025378;28;20136;-63
2021/06/22 05:18:12;;;;;;;5.43;1.90;;;;;;;20.38;75.08;96138.00;5021752;28;20187;-63
2021/06/22 05:20:37;;;;;;;6.05;1.92;;;;;;;20.50;75.36;96134.44;5025649;28;20072;-63
2021/06/22 05:23:03;;;;;;;7.18;2.15;;;;;;;21.94;67.42;96130.28;5028627;28;20038;-63
2021/06/22 05:25:29;;;;;;;5.47;2.00;;;;;;;20.72;72.49;96133.75;5024356;28;20436;-63
2021/06/22 05:27:55;;;;;;;4.95;2.10;;;;;;;20.65;74.33;96134.00;5030837;28;20049;-63
2021/06/22 05:30:20;;;;;;;3.50;1.95;;;;;;;19.93;76.69;96131.41;5021918;28;20037;-64
2021/06/22 05:32:46;;;;;;;4.90;2.72;;;;;;;18.40;83.72;96126.69;5026762;28;20045;-62
2021/06/22 05:35:12;;;;;;;5.10;2.88;;;;;;;18.08;86.74;96133.75;5021997;28;20041;-64
2021/06/22 05:37:38;;;;;;;9.32;3.78;;;;;;;17.66;88.95;96138.94;5030646;28;20061;-62
2021/06/22 05:40:05;;;;;;;5.15;3.00;;;;;;;17.52;89.05;96125.38;5013753;28;20037;-62
2021/06/22 05:42:31;;;;;;;5.75;3.65;;;;;;;18.28;86.74;96128.13;5014592;28;20183;-62
2021/06/22 05:44:56;;;;;;;7.55;3.10;;;;;;;18.54;85.24;96125.56;5026723;28;20491;-63
2021/06/22 05:47:22;;;;;;;7.80;2.72;;;;;;;18.39;85.42;96130.66;5022182;28;20045;-62
2021/06/22 05:49:47;;;;;;;4.40;2.63;;;;;;;19.41;82.18;96127.72;5027455;28;20037;-62
2021/06/22 05:52:12;;;;;;;7.50;2.40;;;;;;;18.86;82.60;96132.34;5021454;28;20044;-62
2021/06/22 05:54:38;;;;;;;8.07;2.15;;;;;;;20.37;76.72;96137.22;5026692;28;20064;-63
2021/06/22 05:57:06;;;;;;;5.97;2.50;;;;;;;19.97;78.74;96131.28;5023820;28;20038;-63
2021/06/22 05:59:31;;;;;;;4.40;2.10;;;;;;;20.43;76.27;96123.53;5026538;28;20418;-62
2021/06/22 06:01:57;;;;;;;10.07;2.15;;;;;;;21.58;72.10;96122.47;5026944;28;20042;-63
2021/06/22 06:04:22;;;;;;;4.85;2.10;;;;;;;20.44;75.29;96125.88;5022200;28;20057;-63
2021/06/22 06:06:47;;;;;;;5.60;2.00;;;;;;;20.63;74.97;96126.09;5027809;28;20110;-63
2021/06/22 06:09:15;;;;;;;8.32;2.38;;;;;;;21.01;72.28;96133.59;5016964;28;20443;-63
2021/06/22 06:11:40;;;;;;;6.43;2.67;;;;;;;21.00;71.15;96127.25;5024182;28;20037;-61
2021/06/22 06:14:05;;;;;;;7.25;3.60;;;;;;;22.15;68.32;96131.50;5017553;28;20048;-62
2021/06/22 06:16:31;;;;;;;4.82;2.40;;;;;;;21.82;69.51;96130.38;5022096;28;20045;-62
2021/06/22 06:18:56;;;;;;;4.43;1.75;;;;;;;21.63;70.21;96124.69;5021823;28;20518;-61
2021/06/22 06:21:23;;;;;;;4.78;2.28;;;;;;;21.76;68.85;96139.31;5020268;28;20810;-62
2021/06/22 06:23:49;;;;;;;4.13;1.98;;;;;;;22.44;64.92;96149.94;5023420;28;20132;-61
2021/06/22 06:26:17;;;;;;;4.88;1.73;;;;;;;22.03;67.26;96140.72;5020316;28;20033;-62
2021/06/22 06:28:46;;;;;;;9.43;2.42;;;;;;;21.87;68.77;96140.94;5022885;28;20038;-62
2021/06/22 06:31:12;;;;;;;5.03;1.95;;;;;;;22.03;66.71;96143.50;5018073;28;20128;-60
2021/06/22 06:33:37;;;;;;;7.30;2.20;;;;;;;21.85;67.36;96149.75;5022286;28;20128;-62
2021/06/22 06:36:03;;;;;;;5.18;1.60;;;;;;;22.78;64.44;96156.56;5031533;28;20052;-64
2021/06/22 06:38:29;;;;;;;6.25;1.83;;;;;;;23.88;61.48;96151.53;5019141;28;20044;-62
2021/06/22 06:40:54;;;;;;;6.07;1.75;;;;;;;23.97;59.00;96155.09;5029244;28;20050;-62
2021/06/22 06:43:20;;;;;;;3.35;1.17;;;;;;;24.11;58.76;96155.69;5024109;28;20133;-64
2021/06/22 06:45:45;;;;;;;3.97;1.85;;;;;;;24.67;56.45;96161.88;5024045;28;20041;-63
2021/06/22 06:48:11;;;;;;;7.28;1.70;;;;;;;25.28;55.08;96161.72;5018668;28;20053;-63
2021/06/22 06:50:36;;;;;;;2.72;1.35;;;;;;;23.95;58.67;96165.19;5022950;28;20048;-62
2021/06/22 06:53:02;;;;;;;6.53;1.33;;;;;;;24.36;56.54;96169.31;5021882;28;20469;-63
2021/06/22 06:55:42;;;;;;;6.07;1.83;;;;;;;23.47;59.38;96165.69;5019832;28;20099;-62
2021/06/22 06:58:08;;;;;;;2.78;1.70;;;;;;;21.89;64.43;96153.19;5015763;28;20529;-62
2021/06/22 07:00:35;;;;;;;4.95;1.95;;;;;;;22.09;65.19;96157.63;5023004;28;20107;-62
2021/06/22 07:03:02;;;;;;;6.55;1.55;;;;;;;22.93;62.29;96161.56;5020966;28;20121;-62
2021/06/22 07:05:28;;;;;;;3.42;1.70;;;;;;;22.51;61.39;96165.63;5021202;28;20481;-63
2021/06/22 07:07:54;;;;;;;5.13;1.77;;;;;;;23.08;61.41;96170.91;5049361;28;20072;-64
2021/06/22 07:10:20;;;;;;;3.38;1.67;;;;;;;24.74;55.58;96159.53;5032318;28;20470;-64
2021/06/22 07:12:46;;;;;;;7.22;1.67;;;;;;;23.70;58.06;96169.88;5028581;28;20053;-64
2021/06/22 07:15:12;;;;;;;3.25;1.40;;;;;;;23.99;57.59;96169.41;5016026;28;20439;-61
2021/06/22 07:17:38;;;;;;;4.85;1.23;;;;;;;24.74;56.38;96176.34;5022676;28;20083;-62
2021/06/22 07:20:05;;;;;;;4.05;1.50;;;;;;;24.87;56.22;96175.34;5017305;28;20050;-63
2021/06/22 07:22:31;;;;;;;6.18;1.50;;;;;;;24.44;58.73;96169.75;5024643;28;20522;-62
2021/06/22 07:24:56;;;;;;;3.53;1.30;;;;;;;24.13;60.08;96167.19;5020268;28;20075;-62
2021/06/22 07:27:21;;;;;;;2.92;1.30;;;;;;;23.76;62.03;96172.81;5017075;28;20798;-61
2021/06/22 07:29:47;;;;;;;4.15;1.45;;;;;;;23.03;64.82;96179.88;5021932;28;20052;-62
2021/06/22 07:32:12;;;;;;;3.17;1.33;;;;;;;22.14;67.86;96193.28;5021027;28;20086;-64
2021/06/22 07:34:38;;;;;;;3.47;1.40;;;;;;;22.39;66.43;96195.16;5023959;28;20073;-64
2021/06/22 07:37:03;;;;;;;3.55;1.50;;;;;;;22.08;67.81;96195.91;5027107;28;20064;-64
2021/06/22 07:39:29;;;;;;;13.25;1.83;;;;;;;21.98;68.78;96193.50;5018196;28;20045;-61
2021/06/22 07:41:55;;;;;;;3.75;1.73;;;;;;;22.16;67.75;96196.41;5021510;28;20435;-63
2021/06/22 07:44:20;;;;;;;7.75;1.88;;;;;;;22.48;67.03;96195.19;5017575;28;20406;-63
2021/06/22 07:46:45;;;;;;;3.13;1.75;;;;;;;22.29;67.20;96188.78;5021747;28;20055;-65
2021/06/22 07:49:11;;;;;;;5.15;1.73;;;;;;;22.94;65.78;96191.81;5021636;28;20041;-62
2021/06/22 07:51:37;;;;;;;4.60;2.15;;;;;;;22.46;67.19;96197.69;5027277;28;20040;-61
2021/06/22 07:54:03;;;;;;;4.63;1.95;;;;;;;22.81;65.97;96199.53;5025475;28;20809;-64
2021/06/22 07:56:29;;;;;;;6.90;2.10;;;;;;;22.70;65.03;96202.72;5022944;28;20053;-63
2021/06/22 07:58:54;;;;;;;6.72;1.83;;;;;;;23.66;62.85;96200.78;5023865;28;20090;-64
2021/06/22 08:01:19;;;;;;;4.35;1.40;;;;;;;23.94;60.90;96200.78;5019789;28;20185;-64
2021/06/22 08:03:45;;;;;;;3.88;2.08;;;;;;;24.64;58.98;96199.25;5026492;28;20076;-64
2021/06/22 08:06:11;;;;;;;5.10;1.60;;;;;;;25.70;56.49;96198.00;5008436;28;20073;-63
2021/06/22 08:08:37;;;;;;;7.75;1.77;;;;;;;25.10;56.48;96204.59;5023074;28;20053;-62
2021/06/22 08:11:03;;;;;;;4.72;1.65;;;;;;;25.24;57.57;96198.31;5019193;28;20419;-64
2021/06/22 08:13:28;;;;;;;5.75;1.60;;;;;;;25.70;55.68;96200.81;5005540;28;20128;-62
2021/06/22 08:15:56;;;;;;;5.57;1.73;;;;;;;25.54;54.95;96204.06;5023231;28;20140;-61
2021/06/22 08:18:21;;;;;;;5.80;1.70;;;;;;;25.33;55.47;96203.88;5014231;28;20122;-64
2021/06/22 08:20:49;;;;;;;6.35;1.55;;;;;;;26.03;53.79;96201.94;5021338;28;20033;-62
2021/06/22 08:23:16;;;;;;;5.30;1.85;;;;;;;25.76;53.98;96198.88;5016713;28;20505;-63
2021/06/22 08:25:41;;;;;;;3.03;1.60;;;;;;;25.55;54.25;96195.16;5025192;28;20048;-62
2021/06/22 08:28:07;;;;;;;2.97;1.58;;;;;;;25.50;55.17;96186.66;5017701;28;20038;-64
2021/06/22 08:30:33;;;;;;;3.90;1.45;;;;;;;25.79;53.76;96188.75;5028075;28;20037;-63
2021/06/22 08:32:59;;;;;;;2.47;1.27;;;;;;;25.84;53.61;96201.31;5023490;28;20047;-64
2021/06/22 08:35:25;;;;;;;3.72;1.60;;;;;;;25.82;54.23;96209.44;5014762;28;20049;-62
2021/06/22 08:37:52;;;;;;;4.18;1.85;;;;;;;25.61;53.83;96212.09;5020084;28;20052;-64
2021/06/22 08:40:17;;;;;;;3.83;1.50;;;;;;;24.90;56.19;96216.38;5015974;28;20136;-64
2021/06/22 08:42:43;;;;;;;4.47;1.52;;;;;;;24.99;54.93;96219.94;5019807;28;20187;-64
2021/06/22 08:45:12;;;;;;;8.38;2.38;;;;;;;24.96;55.22;96220.88;5011337;28;20071;-62
2021/06/22 08:47:37;;;;;;;4.28;1.67;;;;;;;25.69;53.61;96227.28;5023552;28;20124;-64
2021/06/22 08:50:05;;;;;;;5.90;1.90;;;;;;;25.74;53.19;96228.66;5017615;28;20085;-65
2021/06/22 08:52:32;;;;;;;4.25;1.70;;;;;;;25.83;53.33;96222.22;5021096;28;20564;-63
2021/06/22 08:54:58;;;;;;;5.22;2.03;;;;;;;26.23;53.43;96224.50;5017972;28;20049;-63
2021/06/22 08:57:24;;;;;;;4.32;2.10;;;;;;;26.38;52.15;96234.97;5015108;28;20983;-63
2021/06/22 08:59:51;;;;;;;6.78;2.22;;;;;;;25.35;55.26;96228.63;5017411;28;20128;-64
2021/06/22 09:02:24;;;;;;;9.05;2.33;;;;;;;25.41;54.40;96215.50;5026843;28;20073;-63
2021/06/22 09:04:50;;;;;;;5.30;2.33;;;;;;;25.68;53.08;96222.19;5018927;28;20045;-63
2021/06/22 09:07:56;;;;;;;6.05;2.28;;;;;;;25.75;52.46;96230.22;5015208;28;20124;-64
2021/06/22 09:10:31;;;;;;;7.20;2.50;;;;;;;25.71;52.69;96229.63;5013948;28;20543;-64
2021/06/22 09:12:59;;;;;;;7.18;2.20;;;;;;;25.60;52.81;96232.19;5020000;28;20042;-64
2021/06/22 09:15:29;;;;;;;3.73;1.80;;;;;;;24.94;53.95;96234.59;5013762;28;20077;-65
2021/06/22 09:17:57;;;;;;;6.10;1.80;;;;;;;24.35;55.94;96239.75;5027901;28;20076;-64
2021/06/22 09:20:36;;;;;;;5.13;2.00;;;;;;;23.90;57.32;96256.09;5023798;28;20130;-64
2021/06/22 09:23:10;;;;;;;6.72;2.25;;;;;;;24.15;57.16;96254.22;5000251;28;20038;-64
2021/06/22 09:25:36;;;;;;;11.43;2.03;;;;;;;23.67;58.37;96263.81;5031859;28;20069;-63
2021/06/22 09:28:02;;;;;;;6.35;2.63;;;;;;;23.52;59.94;96262.88;5021543;28;20069;-63
2021/06/22 09:30:50;;;;;;;4.78;2.13;;;;;;;23.42;59.58;96261.31;5014054;28;20042;-62
2021/06/22 09:33:18;;;;;;;3.05;1.77;;;;;;;23.32;60.37;96266.13;5006248;28;20049;-65
2021/06/22 09:35:46;;;;;;;7.85;2.22;;;;;;;23.52;59.15;96265.69;5020598;28;20065;-63
2021/06/22 09:38:12;;;;;;;6.82;2.10;;;;;;;23.18;60.61;96269.50;5015980;28;20041;-64
2021/06/22 09:40:38;;;;;;;8.45;2.30;;;;;;;23.00;60.04;96270.19;5034646;28;20588;-63
2021/06/22 09:43:03;;;;;;;8.25;2.33;;;;;;;23.24;59.82;96274.00;5028315;28;20049;-65
2021/06/22 09:45:30;;;;;;;7.28;2.30;;;;;;;22.97;60.19;96271.84;5026435;28;20049;-64
2021/06/22 09:47:59;;;;;;;7.82;2.05;;;;;;;22.83;61.24;96283.59;5023257;28;20564;-63
2021/06/22 09:50:35;;;;;;;;;;;;;;;22.67;61.40;96284.59;5014718;28;20107;-63
2021/06/22 09:53:23;;;;;;;4.20;1.67;;;;;;;22.19;62.50;96292.34;5023627;28;19939;-63
2021/06/22 09:55:48;;;;;;;7.10;1.83;;;;;;;21.74;64.11;96294.31;5023130;28;20046;-62
2021/06/22 09:58:14;;;;;;;6.75;1.55;;;;;;;21.57;65.38;96288.88;5018952;28;20072;-62
2021/06/22 10:00:40;;;;;;;5.45;2.00;;;;;;;21.50;65.98;96293.91;5023851;28;20139;-65
2021/06/22 10:03:06;;;;;;;3.70;1.65;;;;;;;21.75;64.93;96293.84;5014685;28;20438;-64
2021/06/22 10:05:49;;;;;;;7.63;1.70;;;;;;;21.43;65.70;96300.47;5032382;28;20033;-64
2021/06/22 10:08:14;;;;;;;5.75;1.75;;;;;;;21.55;66.25;96305.28;4999034;28;20038;-64
2021/06/22 10:10:40;;;;;;;6.47;1.55;;;;;;;21.52;66.06;96310.97;5004478;28;20076;-64
2021/06/22 10:13:06;;;;;;;7.53;2.15;;;;;;;21.50;66.06;96307.84;5015751;28;20069;-62
2021/06/22 10:15:32;;;;;;;10.50;1.98;;;;;;;21.77;65.59;96299.00;5014967;28;20176;-62
2021/06/22 10:17:58;;;;;;;10.30;2.03;;;;;;;21.79;65.45;96306.88;5023127;28;20037;-64
2021/06/22 10:20:24;;;;;;;6.07;1.70;;;;;;;21.76;65.74;96308.56;5004360;28;20511;-64
2021/06/22 10:22:49;;;;;;;7.55;3.97;;;;;;;21.33;65.93;96316.31;5004332;28;20557;-64
2021/06/22 10:25:16;;;;;;;8.02;1.70;;;;;;;21.37;66.40;96324.53;4996138;28;20520;-62
2021/06/22 10:27:42;;;;;;;5.13;1.73;;;;;;;21.29;66.39;96321.22;5003538;28;20046;-64
2021/06/22 10:30:10;;;;;;;4.25;1.40;;;;;;;20.99;67.45;96323.34;4997020;28;20034;-62
2021/06/22 10:32:36;;;;;;;2.85;1.40;;;;;;;21.07;67.69;96329.47;5024150;28;20235;-63
2021/06/22 10:35:09;;;;;;;4.60;1.55;;;;;;;21.30;66.73;96327.56;5021440;28;20056;-64
2021/06/22 10:37:37;;;;;;;15.25;1.60;;;;;;;21.21;67.19;96331.00;5023065;28;20037;-64
2021/06/22 10:40:05;;;;;;;5.65;1.98;;;;;;;21.28;67.15;96330.78;5034701;28;20049;-64
2021/06/22 10:42:44;;;;;;;4.82;1.35;;;;;;;21.06;68.09;96338.28;5025124;28;20046;-65
2021/06/22 10:45:12;;;;;;;6.97;2.27;;;;;;;21.31;68.13;96343.06;5019104;28;20041;-63
2021/06/22 10:47:39;;;;;;;5.30;1.45;;;;;;;20.93;69.06;96358.53;5031430;28;20500;-64
2021/06/22 10:50:11;;;;;;;3.10;1.77;;;;;;;20.76;70.18;96362.59;5020165;28;20057;-65
2021/06/22 10:52:39;;;;;;;4.00;1.70;;;;;;;20.70;69.99;96365.16;5006116;28;20042;-63
2021/06/22 10:55:05;;;;;;;2.78;1.23;;;;;;;20.55;71.13;96359.22;4995557;28;20049;-62
2021/06/22 10:58:02;;;;;;;5.07;1.60;;;;;;;20.85;70.36;96356.41;5003171;28;20038;-64
2021/06/22 11:00:31;;;;;;;5.47;1.48;;;;;;;20.86;70.88;96349.63;4999646;28;20045;-64
2021/06/22 11:03:07;;;;;;;6.65;1.75;;;;;;;20.78;70.44;96347.03;5010359;28;20068;-64
2021/06/22 11:05:41;;;;;;;3.88;1.83;;;;;;;20.85;69.89;96345.25;5020681;28;20056;-64
2021/06/22 11:08:12;;;;;;;4.25;1.77;;;;;;;20.86;70.02;96347.59;5011323;28;20045;-63
2021/06/22 11:10:47;;;;;;;6.35;1.80;;;;;;;20.96;69.92;96356.88;5022175;28;20088;-63
2021/06/22 11:13:34;;;;;;;6.05;1.52;;;;;;;21.11;70.40;96371.91;5017930;28;20520;-63
2021/06/22 11:16:05;;;;;;;6.18;1.67;;;;;;;20.84;71.88;96361.19;5025597;28;20049;-63
2021/06/22 11:18:53;;;;;;;8.00;2.25;;;;;;;20.60;72.81;96344.75;5025813;28;20443;-64
2021/06/22 11:21:25;;;;;;;4.78;2.35;;;;;;;20.83;72.38;96347.72;5030085;28;20131;-63
2021/06/22 11:24:14;;;;;;;4.43;2.45;;;;;;;20.79;72.07;96345.81;5042530;28;20049;-64
2021/06/22 11:26:39;;;;;;;3.20;1.52;;;;;;;20.88;71.61;96345.16;5041782;28;20041;-64
2021/06/22 11:29:04;;;;;;;2.20;1.70;;;;;;;20.97;71.77;96344.50;5035084;28;20033;-63
2021/06/22 11:31:38;;;;;;;4.57;2.00;;;;;;;21.31;72.74;96346.63;5029357;28;20288;-64